Time,TemperatureF,DewpointF,PressureIn,WindDirection,WindDirectionDegrees,WindSpeedMPH,WindSpeedGustMPH,Humidity,HourlyPrecipIn,Conditions,Clouds,dailyrainin,SoftwareType,DateUTC
2013-10-23 00:00:00,27.7,25.4,30.09,NNW,327,0.0,0.0,91,0.00,,,0.00,Wunderground v.1.15,2013-10-23 05:00:00,
2013-10-23 00:10:00,28.1,25.8,30.09,NNW,327,0.0,0.0,91,0.00,,,0.00,Wunderground v.1.15,2013-10-23 05:10:00,
2013-10-23 00:20:00,28.3,26.0,30.09,NNW,327,0.0,0.0,91,0.00,,,0.00,Wunderground v.1.15,2013-10-23 05:20:00,
2013-10-23 00:25:00,28.5,26.2,30.08,NNW,327,0.0,0.0,91,0.00,,,0.00,Wunderground v.1.15,2013-10-23 05:25:00,
2013-10-23 00:30:00,28.6,26.3,30.09,NNW,327,0.0,0.0,91,0.00,,,0.00,Wunderground v.1.15,2013-10-23 05:30:00,
2013-10-23 00:35:00,28.8,26.5,30.09,NNW,327,0.0,0.0,91,0.00,,,0.00,Wunderground v.1.15,2013-10-23 05:35:00,
2013-10-23 00:40:00,28.9,26.6,30.09,NNW,327,0.0,0.0,91,0.00,,,0.00,Wunderground v.1.15,2013-10-23 05:40:00,
2013-10-23 00:45:00,29.0,26.7,30.09,NNW,327,0.0,0.0,91,0.00,,,0.00,Wunderground v.1.15,2013-10-23 05:45:00,
2013-10-23 00:50:00,28.9,26.6,30.09,NNW,327,0.0,0.0,91,0.00,,,0.00,Wunderground v.1.15,2013-10-23 05:50:00,
2013-10-23 01:00:00,28.7,26.4,30.09,NNW,327,0.0,0.0,91,0.00,,,0.00,Wunderground v.1.15,2013-10-23 06:00:00,
2013-10-23 01:05:00,28.5,26.2,30.09,NNW,327,0.0,0.0,91,0.00,,,0.00,Wunderground v.1.15,2013-10-23 06:05:00,
2013-10-23 01:20:00,28.3,26.0,30.09,NNW,327,0.0,0.0,91,0.00,,,0.00,Wunderground v.1.15,2013-10-23 06:20:00,
2013-10-23 01:25:00,28.3,26.0,30.09,NNW,327,0.0,0.0,91,0.00,,,0.00,Wunderground v.1.15,2013-10-23 06:25:00,
2013-10-23 01:35:00,28.5,26.2,30.09,NNW,327,0.0,0.0,91,0.00,,,0.00,Wunderground v.1.15,2013-10-23 06:35:00,
2013-10-23 01:40:00,28.6,26.3,30.09,NNW,327,0.0,0.0,91,0.00,,,0.00,Wunderground v.1.15,2013-10-23 06:40:00,
2013-10-23 01:45:00,28.8,26.5,30.09,NNW,327,0.0,0.0,91,0.00,,,0.00,Wunderground v.1.15,2013-10-23 06:45:00,
2013-10-23 01:50:00,28.9,26.6,30.09,North,355,0.0,0.0,91,0.00,,,0.00,Wunderground v.1.15,2013-10-23 06:50:00,
2013-10-23 01:55:00,29.1,26.8,30.09,North,355,0.0,0.0,91,0.00,,,0.00,Wunderground v.1.15,2013-10-23 06:55:00,
2013-10-23 02:00:00,29.1,26.8,30.09,North,355,0.0,0.0,91,0.00,,,0.00,Wunderground v.1.15,2013-10-23 07:00:00,
2013-10-23 02:05:00,29.2,26.9,30.09,North,355,0.0,0.0,91,0.00,,,0.00,Wunderground v.1.15,2013-10-23 07:05:00,
2013-10-23 02:15:00,29.4,27.1,30.09,North,355,0.0,0.0,91,0.00,,,0.00,Wunderground v.1.15,2013-10-23 07:15:00,
2013-10-23 02:25:00,29.5,27.2,30.09,North,355,0.0,0.0,91,0.00,,,0.00,Wunderground v.1.15,2013-10-23 07:25:00,
2013-10-23 02:30:00,29.5,27.2,30.09,North,355,0.0,0.0,91,0.00,,,0.00,Wunderground v.1.15,2013-10-23 07:30:00,
2013-10-23 02:35:00,29.6,27.3,30.09,North,355,0.0,0.0,91,0.00,,,0.00,Wunderground v.1.15,2013-10-23 07:35:00,
2013-10-23 02:40:00,29.6,27.0,30.09,North,355,0.0,0.0,90,0.00,,,0.00,Wunderground v.1.15,2013-10-23 07:40:00,
2013-10-23 02:50:00,29.7,27.1,30.09,North,355,0.0,0.0,90,0.00,,,0.00,Wunderground v.1.15,2013-10-23 07:50:00,
2013-10-23 02:55:00,29.7,27.1,30.09,North,355,0.0,0.0,90,0.00,,,0.00,Wunderground v.1.15,2013-10-23 07:55:00,
2013-10-23 03:00:00,29.7,27.1,30.09,North,355,0.0,0.0,90,0.00,,,0.00,Wunderground v.1.15,2013-10-23 08:00:00,
2013-10-23 03:05:00,29.7,27.1,30.08,North,355,0.0,0.0,90,0.00,,,0.00,Wunderground v.1.15,2013-10-23 08:05:00,
2013-10-23 03:15:00,29.7,27.1,30.08,North,355,0.0,2.0,90,0.00,,,0.00,Wunderground v.1.15,2013-10-23 08:15:00,
2013-10-23 03:20:00,29.7,27.1,30.08,North,355,0.0,0.0,90,0.00,,,0.00,Wunderground v.1.15,2013-10-23 08:20:00,
2013-10-23 03:25:00,29.8,27.2,30.08,North,355,0.0,0.0,90,0.00,,,0.00,Wunderground v.1.15,2013-10-23 08:25:00,
2013-10-23 03:30:00,29.8,27.2,30.08,North,351,0.0,0.0,90,0.00,,,0.00,Wunderground v.1.15,2013-10-23 08:30:00,
2013-10-23 03:40:00,29.7,26.9,30.08,North,350,0.0,0.0,89,0.00,,,0.00,Wunderground v.1.15,2013-10-23 08:40:00,
2013-10-23 03:45:00,29.6,26.8,30.08,North,351,0.0,0.0,89,0.00,,,0.00,Wunderground v.1.15,2013-10-23 08:45:00,
2013-10-23 03:50:00,29.4,26.6,30.08,North,350,0.0,0.0,89,0.00,,,0.00,Wunderground v.1.15,2013-10-23 08:50:00,
2013-10-23 03:55:00,29.2,26.4,30.09,North,355,0.0,0.0,89,0.00,,,0.00,Wunderground v.1.15,2013-10-23 08:55:00,
2013-10-23 04:05:00,28.5,25.7,30.09,North,355,0.0,0.0,89,0.00,,,0.00,Wunderground v.1.15,2013-10-23 09:05:00,
2013-10-23 04:15:00,27.9,25.1,30.09,North,355,0.0,0.0,89,0.00,,,0.00,Wunderground v.1.15,2013-10-23 09:15:00,
2013-10-23 04:20:00,27.7,24.9,30.09,North,351,0.0,0.0,89,0.00,,,0.00,Wunderground v.1.15,2013-10-23 09:20:00,
2013-10-23 04:30:00,27.2,24.4,30.09,North,355,0.0,0.0,89,0.00,,,0.00,Wunderground v.1.15,2013-10-23 09:30:00,
2013-10-23 04:35:00,27.1,24.3,30.09,North,350,0.0,0.0,89,0.00,,,0.00,Wunderground v.1.15,2013-10-23 09:35:00,
2013-10-23 04:40:00,26.9,24.1,30.09,North,350,0.0,0.0,89,0.00,,,0.00,Wunderground v.1.15,2013-10-23 09:40:00,
2013-10-23 04:50:00,26.6,24.1,30.09,North,351,0.0,0.0,90,0.00,,,0.00,Wunderground v.1.15,2013-10-23 09:50:00,
2013-10-23 04:55:00,26.4,23.9,30.09,North,350,0.0,0.0,90,0.00,,,0.00,Wunderground v.1.15,2013-10-23 09:55:00,
2013-10-23 05:00:00,26.2,23.4,30.09,North,355,0.0,0.0,89,0.00,,,0.00,Wunderground v.1.15,2013-10-23 10:00:00,
2013-10-23 05:05:00,26.1,23.6,30.09,North,355,0.0,0.0,90,0.00,,,0.00,Wunderground v.1.15,2013-10-23 10:05:00,
2013-10-23 05:15:00,25.7,23.2,30.10,North,351,0.0,0.0,90,0.00,,,0.00,Wunderground v.1.15,2013-10-23 10:15:00,
2013-10-23 05:20:00,25.6,23.1,30.10,North,351,0.0,0.0,90,0.00,,,0.00,Wunderground v.1.15,2013-10-23 10:20:00,
2013-10-23 05:30:00,25.7,23.2,30.11,North,351,0.0,0.0,90,0.00,,,0.00,Wunderground v.1.15,2013-10-23 10:30:00,
2013-10-23 05:35:00,25.9,23.4,30.11,North,350,0.0,0.0,90,0.00,,,0.00,Wunderground v.1.15,2013-10-23 10:35:00,
2013-10-23 05:40:00,25.9,23.4,30.11,North,355,0.0,0.0,90,0.00,,,0.00,Wunderground v.1.15,2013-10-23 10:40:00,
2013-10-23 05:45:00,25.8,23.3,30.11,North,350,0.0,0.0,90,0.00,,,0.00,Wunderground v.1.15,2013-10-23 10:45:00,
2013-10-23 05:50:00,25.9,23.4,30.11,North,351,0.0,0.0,90,0.00,,,0.00,Wunderground v.1.15,2013-10-23 10:50:00,
2013-10-23 05:55:00,26.0,23.5,30.11,North,351,0.0,0.0,90,0.00,,,0.00,Wunderground v.1.15,2013-10-23 10:55:00,
2013-10-23 06:05:00,26.1,23.6,30.12,North,355,0.0,0.0,90,0.00,,,0.00,Wunderground v.1.15,2013-10-23 11:05:00,
2013-10-23 06:15:00,26.3,23.8,30.12,North,351,0.0,0.0,90,0.00,,,0.00,Wunderground v.1.15,2013-10-23 11:15:00,
2013-10-23 06:20:00,26.5,24.0,30.12,North,355,0.0,0.0,90,0.00,,,0.00,Wunderground v.1.15,2013-10-23 11:20:00,
2013-10-23 06:25:00,26.6,24.1,30.12,North,351,0.0,0.0,90,0.00,,,0.00,Wunderground v.1.15,2013-10-23 11:25:00,
2013-10-23 06:30:00,26.7,24.2,30.12,North,351,0.0,0.0,90,0.00,,,0.00,Wunderground v.1.15,2013-10-23 11:30:00,
2013-10-23 06:35:00,26.6,24.1,30.12,North,355,0.0,0.0,90,0.00,,,0.00,Wunderground v.1.15,2013-10-23 11:35:00,
2013-10-23 06:45:00,26.5,24.0,30.12,North,355,0.0,0.0,90,0.00,,,0.00,Wunderground v.1.15,2013-10-23 11:45:00,
2013-10-23 06:50:00,26.4,23.9,30.12,North,350,0.0,0.0,90,0.00,,,0.00,Wunderground v.1.15,2013-10-23 11:50:00,
2013-10-23 06:55:00,26.2,23.7,30.12,North,355,0.0,0.0,90,0.00,,,0.00,Wunderground v.1.15,2013-10-23 11:55:00,
2013-10-23 07:05:00,25.9,23.4,30.12,North,351,0.0,0.0,90,0.00,,,0.00,Wunderground v.1.15,2013-10-23 12:05:00,
2013-10-23 07:15:00,25.5,23.0,30.12,North,351,0.0,0.0,90,0.00,,,0.00,Wunderground v.1.15,2013-10-23 12:15:00,
2013-10-23 07:20:00,25.3,22.8,30.12,North,355,0.0,0.0,90,0.00,,,0.00,Wunderground v.1.15,2013-10-23 12:20:00,
2013-10-23 07:25:00,25.1,22.6,30.12,North,350,0.0,0.0,90,0.00,,,0.00,Wunderground v.1.15,2013-10-23 12:25:00,
2013-10-23 07:30:00,24.9,22.4,30.12,North,351,0.0,0.0,90,0.00,,,0.00,Wunderground v.1.15,2013-10-23 12:30:00,
2013-10-23 07:35:00,24.7,22.2,30.12,North,355,0.0,0.0,90,0.00,,,0.00,Wunderground v.1.15,2013-10-23 12:35:00,
2013-10-23 07:45:00,24.4,21.9,30.13,North,355,0.0,0.0,90,0.00,,,0.00,Wunderground v.1.15,2013-10-23 12:45:00,
2013-10-23 07:50:00,24.3,21.8,30.13,North,355,0.0,0.0,90,0.00,,,0.00,Wunderground v.1.15,2013-10-23 12:50:00,
2013-10-23 07:55:00,24.2,21.7,30.13,North,350,0.0,0.0,90,0.00,,,0.00,Wunderground v.1.15,2013-10-23 12:55:00,
2013-10-23 08:00:00,24.1,21.6,30.14,North,355,0.0,0.0,90,0.00,,,0.00,Wunderground v.1.15,2013-10-23 13:00:00,
2013-10-23 08:05:00,24.0,21.8,30.14,North,355,0.0,0.0,91,0.00,,,0.00,Wunderground v.1.15,2013-10-23 13:05:00,
2013-10-23 08:15:00,24.2,22.0,30.14,North,355,0.0,0.0,91,0.00,,,0.00,Wunderground v.1.15,2013-10-23 13:15:00,
2013-10-23 08:25:00,24.8,22.5,30.14,North,351,0.0,0.0,91,0.00,,,0.00,Wunderground v.1.15,2013-10-23 13:25:00,
2013-10-23 08:30:00,25.2,22.9,30.15,North,355,0.0,0.0,91,0.00,,,0.00,Wunderground v.1.15,2013-10-23 13:30:00,
2013-10-23 08:35:00,25.7,23.4,30.15,North,350,0.0,0.0,91,0.00,,,0.00,Wunderground v.1.15,2013-10-23 13:35:00,
2013-10-23 08:45:00,26.6,24.3,30.15,North,350,0.0,0.0,91,0.00,,,0.00,Wunderground v.1.15,2013-10-23 13:45:00,
2013-10-23 08:50:00,27.0,24.7,30.15,North,351,0.0,0.0,91,0.00,,,0.00,Wunderground v.1.15,2013-10-23 13:50:00,
2013-10-23 08:55:00,27.5,25.2,30.15,North,350,0.0,0.0,91,0.00,,,0.00,Wunderground v.1.15,2013-10-23 13:55:00,
2013-10-23 09:00:00,28.4,26.1,30.15,North,351,0.0,0.0,91,0.00,,,0.00,Wunderground v.1.15,2013-10-23 14:00:00,
2013-10-23 09:05:00,29.0,26.7,30.15,North,351,1.0,2.0,91,0.00,,,0.00,Wunderground v.1.15,2013-10-23 14:05:00,
2013-10-23 09:15:00,29.7,27.4,30.15,North,350,1.0,1.0,91,0.00,,,0.00,Wunderground v.1.15,2013-10-23 14:15:00,
2013-10-23 09:20:00,30.0,27.7,30.15,North,351,0.0,0.0,91,0.00,,,0.00,Wunderground v.1.15,2013-10-23 14:20:00,
2013-10-23 09:25:00,30.2,27.9,30.15,North,355,1.0,1.0,91,0.00,,,0.00,Wunderground v.1.15,2013-10-23 14:25:00,
2013-10-23 09:35:00,31.0,28.4,30.15,North,351,0.0,2.0,90,0.00,,,0.00,Wunderground v.1.15,2013-10-23 14:35:00,
2013-10-23 09:40:00,31.3,28.7,30.15,NNW,347,1.0,1.0,90,0.00,,,0.00,Wunderground v.1.15,2013-10-23 14:40:00,
2013-10-23 09:45:00,31.6,29.0,30.15,NNW,347,1.0,3.0,90,0.00,,,0.00,Wunderground v.1.15,2013-10-23 14:45:00,
2013-10-23 09:50:00,31.7,29.1,30.15,NNW,346,0.0,0.0,90,0.00,,,0.00,Wunderground v.1.15,2013-10-23 14:50:00,
2013-10-23 09:55:00,32.1,29.5,30.15,NNW,347,1.0,1.0,90,0.00,,,0.01,Wunderground v.1.15,2013-10-23 14:55:00,
2013-10-23 10:00:00,32.1,29.5,30.15,NNW,346,1.0,1.0,90,0.00,,,0.01,Wunderground v.1.15,2013-10-23 15:00:00,
2013-10-23 10:05:00,32.4,29.5,30.15,NNW,331,2.0,2.0,89,0.00,,,0.01,Wunderground v.1.15,2013-10-23 15:05:00,
2013-10-23 10:15:00,33.1,30.2,30.15,NNW,342,1.0,4.0,89,0.00,,,0.01,Wunderground v.1.15,2013-10-23 15:15:00,
2013-10-23 10:20:00,33.5,30.6,30.15,North,349,1.0,2.0,89,0.00,,,0.01,Wunderground v.1.15,2013-10-23 15:20:00,
2013-10-23 10:25:00,34.2,31.3,30.15,NNW,334,2.0,2.0,89,0.00,,,0.01,Wunderground v.1.15,2013-10-23 15:25:00,
2013-10-23 10:30:00,34.4,31.5,30.15,NNW,341,2.0,4.0,89,0.00,,,0.01,Wunderground v.1.15,2013-10-23 15:30:00,
2013-10-23 10:40:00,35.6,32.4,30.15,NW,317,2.0,2.0,88,0.00,,,0.01,Wunderground v.1.15,2013-10-23 15:40:00,
2013-10-23 10:50:00,36.1,32.6,30.15,North,355,3.0,4.0,87,0.00,,,0.01,Wunderground v.1.15,2013-10-23 15:50:00,
2013-10-23 11:00:00,36.4,32.6,30.15,NNW,346,2.0,2.0,86,0.00,,,0.01,Wunderground v.1.15,2013-10-23 16:00:00,
2013-10-23 11:05:00,36.6,32.8,30.15,NNW,331,2.0,2.0,86,0.00,,,0.01,Wunderground v.1.15,2013-10-23 16:05:00,
2013-10-23 11:15:00,37.0,33.2,30.15,NW,323,1.0,3.0,86,0.00,,,0.01,Wunderground v.1.15,2013-10-23 16:15:00,
2013-10-23 11:20:00,37.2,33.1,30.15,NNW,344,2.0,3.0,85,0.00,,,0.01,Wunderground v.1.15,2013-10-23 16:20:00,
2013-10-23 11:25:00,37.5,33.4,30.15,NW,307,2.0,3.0,85,0.00,,,0.01,Wunderground v.1.15,2013-10-23 16:25:00,
2013-10-23 11:30:00,38.0,33.9,30.15,NNW,341,2.0,2.0,85,0.00,,,0.01,Wunderground v.1.15,2013-10-23 16:30:00,
2013-10-23 11:35:00,38.5,34.1,30.15,NNW,337,2.0,2.0,84,0.00,,,0.01,Wunderground v.1.15,2013-10-23 16:35:00,
2013-10-23 11:40:00,38.5,33.8,30.15,NNW,337,2.0,2.0,83,0.00,,,0.01,Wunderground v.1.15,2013-10-23 16:40:00,
2013-10-23 11:45:00,38.7,34.0,30.15,NW,322,1.0,6.0,83,0.00,,,0.01,Wunderground v.1.15,2013-10-23 16:45:00,
2013-10-23 11:50:00,38.8,33.8,30.15,NNW,348,1.0,2.0,82,0.00,,,0.01,Wunderground v.1.15,2013-10-23 16:50:00,
2013-10-23 11:55:00,39.5,34.2,30.15,NNW,334,2.0,5.0,81,0.00,,,0.01,Wunderground v.1.15,2013-10-23 16:55:00,
2013-10-23 12:05:00,40.0,34.0,30.14,NNW,347,3.0,6.0,79,0.00,,,0.01,Wunderground v.1.15,2013-10-23 17:05:00,
2013-10-23 12:15:00,40.2,33.6,30.15,WNW,303,2.0,3.0,77,0.00,,,0.01,Wunderground v.1.15,2013-10-23 17:15:00,
2013-10-23 12:20:00,40.2,33.6,30.15,North,350,2.0,2.0,77,0.00,,,0.01,Wunderground v.1.15,2013-10-23 17:20:00,
2013-10-23 12:25:00,40.6,33.6,30.15,NNW,344,2.0,3.0,76,0.00,,,0.01,Wunderground v.1.15,2013-10-23 17:25:00,
2013-10-23 12:35:00,42.0,33.6,30.14,NW,313,2.0,3.0,72,0.00,,,0.01,Wunderground v.1.15,2013-10-23 17:35:00,
2013-10-23 12:40:00,41.1,32.4,30.14,NNW,338,2.0,2.0,71,0.00,,,0.01,Wunderground v.1.15,2013-10-23 17:40:00,
2013-10-23 12:45:00,40.8,32.1,30.14,NW,315,2.0,2.0,71,0.00,,,0.01,Wunderground v.1.15,2013-10-23 17:45:00,
2013-10-23 12:50:00,40.4,31.0,30.13,NNW,327,2.0,4.0,69,0.00,,,0.01,Wunderground v.1.15,2013-10-23 17:50:00,
2013-10-23 13:00:00,41.4,30.9,30.13,North,5,4.0,10.0,66,0.00,,,0.01,Wunderground v.1.15,2013-10-23 18:00:00,
2013-10-23 13:05:00,41.1,31.0,30.13,NW,318,4.0,10.0,67,0.00,,,0.01,Wunderground v.1.15,2013-10-23 18:05:00,
2013-10-23 13:15:00,40.6,30.5,30.13,NNW,338,3.0,4.0,67,0.00,,,0.01,Wunderground v.1.15,2013-10-23 18:15:00,
2013-10-23 13:25:00,40.6,30.5,30.13,WNW,286,2.0,3.0,67,0.00,,,0.01,Wunderground v.1.15,2013-10-23 18:25:00,
2013-10-23 13:30:00,40.9,30.8,30.13,NW,306,1.0,3.0,67,0.00,,,0.01,Wunderground v.1.15,2013-10-23 18:30:00,
2013-10-23 13:35:00,40.9,30.8,30.13,NNW,333,2.0,3.0,67,0.00,,,0.01,Wunderground v.1.15,2013-10-23 18:35:00,
2013-10-23 13:40:00,40.8,30.7,30.13,NNW,331,2.0,2.0,67,0.00,,,0.01,Wunderground v.1.15,2013-10-23 18:40:00,
2013-10-23 13:45:00,40.6,30.5,30.13,NW,311,1.0,2.0,67,0.00,,,0.01,Wunderground v.1.15,2013-10-23 18:45:00,
2013-10-23 13:50:00,40.5,29.7,30.13,NW,310,2.0,6.0,65,0.00,,,0.01,Wunderground v.1.15,2013-10-23 18:50:00,
2013-10-23 13:55:00,40.4,28.8,30.13,NW,326,2.0,6.0,63,0.00,,,0.01,Wunderground v.1.15,2013-10-23 18:55:00,
2013-10-23 14:05:00,41.0,29.0,30.12,NW,325,1.0,6.0,62,0.00,,,0.01,Wunderground v.1.15,2013-10-23 19:05:00,
2013-10-23 14:15:00,40.7,29.1,30.12,WNW,284,2.0,4.0,63,0.00,,,0.01,Wunderground v.1.15,2013-10-23 19:15:00,
2013-10-23 14:25:00,40.7,29.5,30.12,NNW,330,0.0,2.0,64,0.00,,,0.01,Wunderground v.1.15,2013-10-23 19:25:00,
2013-10-23 14:30:00,40.7,29.5,30.12,NNW,340,0.0,0.0,64,0.00,,,0.01,Wunderground v.1.15,2013-10-23 19:30:00,
2013-10-23 14:40:00,40.4,29.2,30.12,NW,319,1.0,1.0,64,0.00,,,0.01,Wunderground v.1.15,2013-10-23 19:40:00,
2013-10-23 14:45:00,40.5,28.9,30.12,NW,322,1.0,1.0,63,0.00,,,0.01,Wunderground v.1.15,2013-10-23 19:45:00,
2013-10-23 14:50:00,40.6,29.0,30.12,NNW,334,1.0,1.0,63,0.00,,,0.01,Wunderground v.1.15,2013-10-23 19:50:00,
2013-10-23 14:55:00,40.7,29.1,30.12,West,278,1.0,6.0,63,0.00,,,0.01,Wunderground v.1.15,2013-10-23 19:55:00,
2013-10-23 15:05:00,40.6,29.4,30.12,NNW,343,2.0,3.0,64,0.00,,,0.01,Wunderground v.1.15,2013-10-23 20:05:00,
2013-10-23 15:15:00,40.5,29.3,30.12,NW,326,1.0,2.0,64,0.00,,,0.01,Wunderground v.1.15,2013-10-23 20:15:00,
2013-10-23 15:20:00,40.7,29.1,30.12,WNW,288,1.0,2.0,63,0.00,,,0.01,Wunderground v.1.15,2013-10-23 20:20:00,
2013-10-23 15:25:00,40.9,28.5,30.12,NNW,330,1.0,2.0,61,0.00,,,0.01,Wunderground v.1.15,2013-10-23 20:25:00,
2013-10-23 15:35:00,41.1,29.1,30.12,WNW,303,1.0,7.0,62,0.00,,,0.01,Wunderground v.1.15,2013-10-23 20:35:00,
2013-10-23 15:45:00,40.9,28.5,30.12,NW,314,2.0,2.0,61,0.00,,,0.01,Wunderground v.1.15,2013-10-23 20:45:00,
2013-10-23 15:55:00,41.0,28.6,30.12,NW,326,1.0,1.0,61,0.00,,,0.01,Wunderground v.1.15,2013-10-23 20:55:00,
2013-10-23 16:00:00,40.8,28.0,30.12,West,280,1.0,1.0,60,0.00,,,0.01,Wunderground v.1.15,2013-10-23 21:00:00,
2013-10-23 16:05:00,40.8,28.4,30.13,WNW,294,1.0,1.0,61,0.00,,,0.01,Wunderground v.1.15,2013-10-23 21:05:00,
2013-10-23 16:15:00,40.8,28.8,30.12,North,355,1.0,1.0,62,0.00,,,0.01,Wunderground v.1.15,2013-10-23 21:15:00,
2013-10-23 16:20:00,40.8,28.4,30.12,North,360,1.0,1.0,61,0.00,,,0.01,Wunderground v.1.15,2013-10-23 21:20:00,
2013-10-23 16:25:00,40.9,28.5,30.12,North,360,0.0,3.0,61,0.00,,,0.01,Wunderground v.1.15,2013-10-23 21:25:00,
2013-10-23 16:30:00,40.8,28.4,30.13,NNW,348,0.0,1.0,61,0.00,,,0.01,Wunderground v.1.15,2013-10-23 21:30:00,
2013-10-23 16:35:00,40.8,28.0,30.13,North,360,1.0,4.0,60,0.00,,,0.01,Wunderground v.1.15,2013-10-23 21:35:00,
2013-10-23 16:45:00,40.6,27.0,30.12,NNW,346,1.0,2.0,58,0.00,,,0.01,Wunderground v.1.15,2013-10-23 21:45:00,
2013-10-23 16:50:00,40.6,27.0,30.13,NNW,345,0.0,0.0,58,0.00,,,0.01,Wunderground v.1.15,2013-10-23 21:50:00,
2013-10-23 16:55:00,40.5,26.9,30.13,North,355,1.0,1.0,58,0.00,,,0.01,Wunderground v.1.15,2013-10-23 21:55:00,
2013-10-23 17:05:00,40.3,26.7,30.13,NNW,341,0.0,1.0,58,0.00,,,0.01,Wunderground v.1.15,2013-10-23 22:05:00,
2013-10-23 17:15:00,40.1,26.5,30.13,NW,326,1.0,1.0,58,0.00,,,0.01,Wunderground v.1.15,2013-10-23 22:15:00,
2013-10-23 17:20:00,40.0,26.4,30.13,NNW,344,1.0,1.0,58,0.00,,,0.01,Wunderground v.1.15,2013-10-23 22:20:00,
2013-10-23 17:30:00,39.8,26.6,30.13,NNW,344,0.0,0.0,59,0.00,,,0.01,Wunderground v.1.15,2013-10-23 22:30:00,
2013-10-23 17:35:00,39.7,26.5,30.13,NNW,344,0.0,0.0,59,0.00,,,0.01,Wunderground v.1.15,2013-10-23 22:35:00,
2013-10-23 17:40:00,39.6,26.8,30.13,NNW,344,0.0,0.0,60,0.00,,,0.01,Wunderground v.1.15,2013-10-23 22:40:00,
2013-10-23 17:45:00,39.5,26.8,30.13,NNW,344,0.0,0.0,60,0.00,,,0.01,Wunderground v.1.15,2013-10-23 22:45:00,
2013-10-23 17:55:00,39.3,27.0,30.13,NNW,344,0.0,0.0,61,0.00,,,0.01,Wunderground v.1.15,2013-10-23 22:55:00,
2013-10-23 18:00:00,39.1,27.2,30.13,NNW,344,0.0,0.0,62,0.00,,,0.01,Wunderground v.1.15,2013-10-23 23:00:00,
2013-10-23 18:05:00,38.9,27.4,30.13,NNW,344,0.0,0.0,63,0.00,,,0.01,Wunderground v.1.15,2013-10-23 23:05:00,
2013-10-23 18:15:00,38.7,27.2,30.13,NNW,344,0.0,0.0,63,0.00,,,0.01,Wunderground v.1.15,2013-10-23 23:15:00,
2013-10-23 18:20:00,38.6,27.5,30.13,NNW,344,0.0,0.0,64,0.00,,,0.01,Wunderground v.1.15,2013-10-23 23:20:00,
2013-10-23 18:30:00,38.4,27.7,30.14,NNW,344,0.0,0.0,65,0.00,,,0.01,Wunderground v.1.15,2013-10-23 23:30:00,
2013-10-23 18:40:00,38.2,27.8,30.14,NNW,344,0.0,0.0,66,0.00,,,0.01,Wunderground v.1.15,2013-10-23 23:40:00,
2013-10-23 18:45:00,38.2,27.8,30.14,NNW,344,0.0,0.0,66,0.00,,,0.01,Wunderground v.1.15,2013-10-23 23:45:00,
2013-10-23 18:50:00,38.1,27.7,30.14,NNW,344,0.0,1.0,66,0.00,,,0.01,Wunderground v.1.15,2013-10-23 23:50:00,
2013-10-23 19:00:00,38.1,27.7,30.14,NNW,344,1.0,1.0,66,0.00,,,0.01,Wunderground v.1.15,2013-10-24 00:00:00,
2013-10-23 19:05:00,38.1,27.7,30.15,NNW,344,0.0,1.0,66,0.00,,,0.01,Wunderground v.1.15,2013-10-24 00:05:00,
2013-10-23 19:15:00,38.1,28.1,30.15,NNW,344,0.0,0.0,67,0.00,,,0.01,Wunderground v.1.15,2013-10-24 00:15:00,
2013-10-23 19:25:00,38.0,28.4,30.15,NNW,344,0.0,3.0,68,0.00,,,0.01,Wunderground v.1.15,2013-10-24 00:25:00,
2013-10-23 19:30:00,37.9,28.3,30.15,NNW,341,0.0,0.0,68,0.00,,,0.01,Wunderground v.1.15,2013-10-24 00:30:00,
2013-10-23 19:35:00,37.9,28.6,30.15,NW,321,0.0,0.0,69,0.00,,,0.01,Wunderground v.1.15,2013-10-24 00:35:00,
2013-10-23 19:40:00,37.8,28.5,30.15,NW,309,0.0,0.0,69,0.00,,,0.01,Wunderground v.1.15,2013-10-24 00:40:00,
2013-10-23 19:45:00,37.8,28.5,30.15,NNW,334,0.0,0.0,69,0.00,,,0.01,Wunderground v.1.15,2013-10-24 00:45:00,
2013-10-23 19:55:00,37.7,28.8,30.15,NNW,340,1.0,1.0,70,0.00,,,0.01,Wunderground v.1.15,2013-10-24 00:55:00,
2013-10-23 20:00:00,37.6,28.7,30.15,NNW,340,0.0,0.0,70,0.00,,,0.01,Wunderground v.1.15,2013-10-24 01:00:00,
2013-10-23 20:05:00,37.5,28.9,30.15,NNW,340,0.0,0.0,71,0.00,,,0.01,Wunderground v.1.15,2013-10-24 01:05:00,
2013-10-23 20:15:00,37.4,29.2,30.15,NNW,340,0.0,0.0,72,0.00,,,0.01,Wunderground v.1.15,2013-10-24 01:15:00,
2013-10-23 20:20:00,37.4,29.2,30.15,NNW,340,0.0,0.0,72,0.00,,,0.01,Wunderground v.1.15,2013-10-24 01:20:00,
2013-10-23 20:25:00,37.4,29.2,30.15,NNW,340,0.0,0.0,72,0.00,,,0.01,Wunderground v.1.15,2013-10-24 01:25:00,
2013-10-23 20:35:00,37.3,29.4,30.15,NNW,340,0.0,3.0,73,0.00,,,0.01,Wunderground v.1.15,2013-10-24 01:35:00,
2013-10-23 20:40:00,37.3,29.8,30.15,NNW,337,1.0,1.0,74,0.00,,,0.01,Wunderground v.1.15,2013-10-24 01:40:00,
2013-10-23 20:45:00,37.3,29.8,30.15,NNW,337,1.0,1.0,74,0.00,,,0.01,Wunderground v.1.15,2013-10-24 01:45:00,
2013-10-23 20:50:00,37.2,30.0,30.15,NNW,336,0.0,0.0,75,0.00,,,0.01,Wunderground v.1.15,2013-10-24 01:50:00,
2013-10-23 21:00:00,37.2,30.0,30.15,NNW,336,0.0,0.0,75,0.00,,,0.01,Wunderground v.1.15,2013-10-24 02:00:00,
2013-10-23 21:05:00,37.2,30.3,30.15,NNW,336,0.0,0.0,76,0.00,,,0.01,Wunderground v.1.15,2013-10-24 02:05:00,
2013-10-23 21:15:00,37.2,30.7,30.15,NNW,336,0.0,0.0,77,0.00,,,0.01,Wunderground v.1.15,2013-10-24 02:15:00,
2013-10-23 21:20:00,37.1,30.6,30.16,NNW,336,0.0,0.0,77,0.00,,,0.01,Wunderground v.1.15,2013-10-24 02:20:00,
2013-10-23 21:25:00,37.1,30.6,30.16,NNW,336,0.0,0.0,77,0.00,,,0.01,Wunderground v.1.15,2013-10-24 02:25:00,
2013-10-23 21:30:00,37.1,30.6,30.16,NNW,336,0.0,0.0,77,0.00,,,0.01,Wunderground v.1.15,2013-10-24 02:30:00,
2013-10-23 21:35:00,37.1,30.9,30.16,NNW,336,0.0,0.0,78,0.00,,,0.01,Wunderground v.1.15,2013-10-24 02:35:00,
2013-10-23 21:40:00,37.0,30.8,30.16,NNW,336,0.0,0.0,78,0.00,,,0.01,Wunderground v.1.15,2013-10-24 02:40:00,
2013-10-23 21:50:00,36.9,30.7,30.16,NNW,335,0.0,0.0,78,0.00,,,0.01,Wunderground v.1.15,2013-10-24 02:50:00,
2013-10-23 21:55:00,36.9,31.0,30.16,NNW,335,0.0,0.0,79,0.00,,,0.01,Wunderground v.1.15,2013-10-24 02:55:00,
2013-10-23 22:00:00,36.9,31.0,30.16,NNW,334,0.0,0.0,79,0.00,,,0.01,Wunderground v.1.15,2013-10-24 03:00:00,
2013-10-23 22:05:00,36.9,31.0,30.16,NNW,335,0.0,0.0,79,0.00,,,0.01,Wunderground v.1.15,2013-10-24 03:05:00,
2013-10-23 22:15:00,36.8,30.9,30.16,West,273,0.0,0.0,79,0.00,,,0.01,Wunderground v.1.15,2013-10-24 03:15:00,
2013-10-23 22:20:00,36.7,30.8,30.16,West,273,0.0,1.0,79,0.00,,,0.01,Wunderground v.1.15,2013-10-24 03:20:00,
2013-10-23 22:25:00,36.7,31.1,30.16,West,276,0.0,1.0,80,0.00,,,0.01,Wunderground v.1.15,2013-10-24 03:25:00,
2013-10-23 22:35:00,36.7,31.1,30.15,West,276,0.0,0.0,80,0.00,,,0.01,Wunderground v.1.15,2013-10-24 03:35:00,
2013-10-23 22:45:00,36.6,31.3,30.16,NW,313,0.0,0.0,81,0.00,,,0.01,Wunderground v.1.15,2013-10-24 03:45:00,
2013-10-23 22:50:00,36.6,31.3,30.16,NW,314,0.0,0.0,81,0.00,,,0.01,Wunderground v.1.15,2013-10-24 03:50:00,
2013-10-23 22:55:00,36.5,31.2,30.16,NW,309,0.0,0.0,81,0.00,,,0.01,Wunderground v.1.15,2013-10-24 03:55:00,
2013-10-23 23:05:00,36.5,31.5,30.16,NW,311,0.0,0.0,82,0.00,,,0.01,Wunderground v.1.15,2013-10-24 04:05:00,
2013-10-23 23:10:00,36.4,31.4,30.15,NW,311,0.0,0.0,82,0.00,,,0.01,Wunderground v.1.15,2013-10-24 04:10:00,
2013-10-23 23:15:00,36.4,31.4,30.15,NW,311,0.0,0.0,82,0.00,,,0.01,Wunderground v.1.15,2013-10-24 04:15:00,
2013-10-23 23:20:00,36.3,31.3,30.15,NW,311,0.0,0.0,82,0.00,,,0.01,Wunderground v.1.15,2013-10-24 04:20:00,
2013-10-23 23:30:00,36.2,31.2,30.15,NW,311,0.0,0.0,82,0.00,,,0.01,Wunderground v.1.15,2013-10-24 04:30:00,
2013-10-23 23:35:00,36.2,31.5,30.15,NW,311,0.0,0.0,83,0.00,,,0.01,Wunderground v.1.15,2013-10-24 04:35:00,
2013-10-23 23:40:00,36.1,31.4,30.15,NW,311,0.0,0.0,83,0.00,,,0.01,Wunderground v.1.15,2013-10-24 04:40:00,
2013-10-23 23:45:00,36.0,31.3,30.15,NW,311,0.0,0.0,83,0.00,,,0.01,Wunderground v.1.15,2013-10-24 04:45:00,
2013-10-23 23:50:00,36.0,31.3,30.15,NW,311,0.0,0.0,83,0.00,,,0.01,Wunderground v.1.15,2013-10-24 04:50:00,